Time;durP1;ratioP1;P1;durP2;ratioP2;P2;SDS_P1;SDS_P2;PMS_P1;PMS_P2;Temp;Humidity;BMP_temperature;BMP_pressure;BME280_temperature;BME280_humidity;BME280_pressure;Samples;Min_cycle;Max_cycle;Signal;HPM_P1;HPM_P2
2022/04/02 00:00:06;;;;;;;23.23;17.27;;;;;;;;;;5044869;28;20931;-82
2022/04/02 00:03:16;;;;;;;23.47;15.90;;;;;;;;;;5055833;28;20603;-82
2022/04/02 00:06:20;;;;;;;20.33;16.20;;;;;;;;;;5045606;28;20535;-83
2022/04/02 00:09:24;;;;;;;22.10;16.77;;;;;;;;;;5056785;28;20539;-83
2022/04/02 00:12:28;;;;;;;25.27;16.90;;;;;;;;;;5045250;28;20551;-83
2022/04/02 00:15:33;;;;;;;21.20;16.40;;;;;;;;;;5045476;28;20618;-83
2022/04/02 00:18:38;;;;;;;22.97;17.00;;;;;;;;;;5034599;28;20551;-83
2022/04/02 00:21:43;;;;;;;23.53;17.90;;;;;;;;;;5045401;28;20528;-83
2022/04/02 00:24:47;;;;;;;24.40;17.03;;;;;;;;;;5056438;28;20638;-82
2022/04/02 00:27:51;;;;;;;25.73;16.73;;;;;;;;;;5033850;28;20606;-82
2022/04/02 00:30:56;;;;;;;25.83;17.87;;;;;;;;;;5055775;28;20539;-82
2022/04/02 00:34:01;;;;;;;25.10;16.97;;;;;;;;;;5053233;28;20543;-84
2022/04/02 00:37:05;;;;;;;22.77;16.43;;;;;;;;;;5030229;28;20617;-84
2022/04/02 00:40:09;;;;;;;22.77;16.10;;;;;;;;;;5053889;28;20931;-84
2022/04/02 00:43:31;;;;;;;25.07;17.17;;;;;;;;;;5030928;28;20548;-84
2022/04/02 00:46:36;;;;;;;23.27;16.83;;;;;;;;;;5030747;28;20561;-84
2022/04/02 00:49:40;;;;;;;25.53;17.73;;;;;;;;;;5052280;22;20680;-83
2022/04/02 00:52:45;;;;;;;23.83;17.37;;;;;;;;;;5014368;28;20868;-83
2022/04/02 00:55:49;;;;;;;23.57;17.73;;;;;;;;;;5002783;28;20549;-83
2022/04/02 00:58:53;;;;;;;25.77;17.73;;;;;;;;;;5002385;28;20541;-83
2022/04/02 01:01:57;;;;;;;23.73;17.83;;;;;;;;;;4991664;28;20530;-83
2022/04/02 01:05:02;;;;;;;21.10;16.50;;;;;;;;;;4992794;28;20611;-83
2022/04/02 01:08:10;;;;;;;24.30;17.30;;;;;;;;;;5015333;28;20600;-83
2022/04/02 01:11:15;;;;;;;23.33;16.93;;;;;;;;;;5003496;28;20611;-83
2022/04/02 01:14:24;;;;;;;26.10;17.37;;;;;;;;;;5005009;28;20545;-83
2022/04/02 01:17:34;;;;;;;21.97;16.87;;;;;;;;;;4993652;28;20882;-83
2022/04/02 01:20:40;;;;;;;27.13;18.10;;;;;;;;;;5003585;28;21217;-83
2022/04/02 01:23:44;;;;;;;23.67;16.90;;;;;;;;;;4992367;28;20608;-83
2022/04/02 01:26:53;;;;;;;30.20;18.80;;;;;;;;;;4992961;28;21099;-83
2022/04/02 01:30:00;;;;;;;26.63;18.30;;;;;;;;;;4992684;28;20616;-83
2022/04/02 01:33:05;;;;;;;25.03;17.27;;;;;;;;;;5003621;28;20545;-83
2022/04/02 01:36:09;;;;;;;28.60;18.27;;;;;;;;;;4991968;28;20548;-83
2022/04/02 01:39:26;;;;;;;29.10;18.20;;;;;;;;;;5003851;28;20624;-83
2022/04/02 01:42:31;;;;;;;22.67;17.37;;;;;;;;;;5003571;28;21083;-83
2022/04/02 01:45:42;;;;;;;27.23;17.67;;;;;;;;;;5007319;28;20541;-83
2022/04/02 01:48:47;;;;;;;25.70;17.93;;;;;;;;;;5007152;28;20536;-83
2022/04/02 01:51:51;;;;;;;23.73;16.90;;;;;;;;;;5006934;28;20548;-83
2022/04/02 01:54:56;;;;;;;27.40;18.93;;;;;;;;;;4995573;28;20901;-83
2022/04/02 01:58:01;;;;;;;28.17;19.63;;;;;;;;;;5006623;28;21114;-83
2022/04/02 02:01:14;;;;;;;25.87;17.87;;;;;;;;;;5005864;28;20652;-83
2022/04/02 02:04:18;;;;;;;25.33;17.60;;;;;;;;;;5017789;28;20533;-83
2022/04/02 02:07:22;;;;;;;25.10;18.13;;;;;;;;;;5006281;28;20540;-83
2022/04/02 02:10:29;;;;;;;29.60;20.07;;;;;;;;;;4995703;28;20616;-83
2022/04/02 02:13:54;;;;;;;23.83;18.17;;;;;;;;;;5002915;28;20620;-83
2022/04/02 02:17:02;;;;;;;27.67;19.30;;;;;;;;;;4995907;28;20545;-83
2022/04/02 02:20:08;;;;;;;26.47;18.50;;;;;;;;;;4994359;28;20624;-83
2022/04/02 02:23:14;;;;;;;25.77;17.90;;;;;;;;;;5006223;28;20873;-83
2022/04/02 02:26:18;;;;;;;28.40;18.17;;;;;;;;;;4994602;28;20553;-83
2022/04/02 02:29:22;;;;;;;25.23;18.10;;;;;;;;;;4995050;28;20615;-83
2022/04/02 02:32:26;;;;;;;23.20;16.53;;;;;;;;;;4995643;28;20533;-83
2022/04/02 02:38:54;;;;;;;27.43;17.37;;;;;;;;;;5005796;28;20545;-83
2022/04/02 02:42:07;;;;;;;28.60;16.37;;;;;;;;;;4995675;28;20604;-83
2022/04/02 02:45:19;;;;;;;24.33;15.77;;;;;;;;;;5006433;28;20542;-83
2022/04/02 02:48:24;;;;;;;29.60;18.63;;;;;;;;;;5016825;28;20541;-83
2022/04/02 02:51:32;;;;;;;27.23;18.30;;;;;;;;;;5005614;28;20888;-83
2022/04/02 02:54:36;;;;;;;25.40;17.47;;;;;;;;;;4994506;28;21157;-83
2022/04/02 02:57:43;;;;;;;25.80;16.90;;;;;;;;;;4994339;28;21137;-83
2022/04/02 03:00:48;;;;;;;28.17;18.47;;;;;;;;;;5005726;28;20652;-83
2022/04/02 03:04:01;;;;;;;31.47;19.70;;;;;;;;;;5005485;28;20541;-83
2022/04/02 03:07:09;;;;;;;27.77;17.70;;;;;;;;;;5016935;28;20545;-83
2022/04/02 03:10:22;;;;;;;24.60;18.03;;;;;;;;;;4994621;28;20628;-83
2022/04/02 03:13:27;;;;;;;28.17;18.17;;;;;;;;;;5005168;28;20545;-83
2022/04/02 03:16:40;;;;;;;27.40;17.10;;;;;;;;;;4994926;28;20533;-83
2022/04/02 03:19:49;;;;;;;28.27;16.70;;;;;;;;;;4994769;28;20624;-83
2022/04/02 03:22:55;;;;;;;25.97;17.53;;;;;;;;;;5004262;28;20593;-83
2022/04/02 03:26:02;;;;;;;24.70;16.13;;;;;;;;;;5004910;28;20553;-83
2022/04/02 03:29:13;;;;;;;22.03;15.47;;;;;;;;;;5005040;28;20541;-83
2022/04/02 03:32:20;;;;;;;23.43;16.27;;;;;;;;;;4993752;28;20592;-83
2022/04/02 03:35:25;;;;;;;27.10;17.17;;;;;;;;;;5015637;28;20553;-83
2022/04/02 03:38:31;;;;;;;22.30;15.83;;;;;;;;;;4993698;28;20545;-83
2022/04/02 03:41:40;;;;;;;24.77;14.67;;;;;;;;;;4993865;28;20968;-83
2022/04/02 03:44:44;;;;;;;24.13;16.10;;;;;;;;;;5004823;28;21146;-83
2022/04/02 03:47:49;;;;;;;23.67;15.23;;;;;;;;;;4994099;28;20541;-83
2022/04/02 03:50:54;;;;;;;21.13;14.63;;;;;;;;;;4993262;28;20652;-83
2022/04/02 03:53:59;;;;;;;22.07;14.53;;;;;;;;;;5004581;28;21071;-83
2022/04/02 03:57:04;;;;;;;22.97;14.43;;;;;;;;;;5004131;28;20557;-83
2022/04/02 04:00:09;;;;;;;20.93;14.47;;;;;;;;;;4993721;28;20635;-83
2022/04/02 04:03:23;;;;;;;24.83;14.60;;;;;;;;;;4994556;28;21100;-83
2022/04/02 04:06:34;;;;;;;20.00;13.80;;;;;;;;;;4993043;28;20560;-83
2022/04/02 04:09:40;;;;;;;20.20;12.77;;;;;;;;;;5004349;28;20995;-83
2022/04/02 04:12:45;;;;;;;18.83;12.70;;;;;;;;;;5004614;28;21119;-83
2022/04/02 04:15:50;;;;;;;16.10;11.77;;;;;;;;;;5004225;28;20553;-83
2022/04/02 04:18:55;;;;;;;18.90;11.83;;;;;;;;;;5004238;28;20551;-83
2022/04/02 04:21:59;;;;;;;20.87;11.80;;;;;;;;;;5003743;28;20625;-83
2022/04/02 04:25:04;;;;;;;19.97;11.70;;;;;;;;;;5015427;28;20548;-83
2022/04/02 04:28:10;;;;;;;17.10;11.00;;;;;;;;;;4992239;28;20552;-83
2022/04/02 04:31:17;;;;;;;16.57;11.70;;;;;;;;;;4991995;28;20615;-82
2022/04/02 04:34:22;;;;;;;17.57;11.40;;;;;;;;;;4992390;28;20549;-82
2022/04/02 04:37:26;;;;;;;17.37;12.17;;;;;;;;;;4992017;28;20552;-82
2022/04/02 04:40:31;;;;;;;19.10;10.77;;;;;;;;;;4992196;28;20651;-82
2022/04/02 04:43:37;;;;;;;17.17;11.33;;;;;;;;;;4996514;28;20597;-83
2022/04/02 04:46:42;;;;;;;19.27;11.90;;;;;;;;;;5017197;28;20613;-83
2022/04/02 04:49:49;;;;;;;18.40;11.50;;;;;;;;;;4994588;28;20640;-83
2022/04/02 04:52:53;;;;;;;17.10;10.30;;;;;;;;;;4994754;28;20564;-83
2022/04/02 04:55:59;;;;;;;19.07;11.50;;;;;;;;;;4993922;28;20605;-83
2022/04/02 04:59:03;;;;;;;17.80;11.37;;;;;;;;;;4994200;28;20612;-83
2022/04/02 05:02:12;;;;;;;21.43;12.33;;;;;;;;;;4993543;28;20628;-81
2022/04/02 05:05:18;;;;;;;22.80;11.97;;;;;;;;;;5006408;28;20599;-82
2022/04/02 05:08:25;;;;;;;18.77;11.30;;;;;;;;;;4993618;28;20611;-81
2022/04/02 05:11:32;;;;;;;17.20;11.50;;;;;;;;;;5003267;28;21113;-81
2022/04/02 05:14:37;;;;;;;16.63;10.33;;;;;;;;;;4990879;28;20552;-81
2022/04/02 05:17:43;;;;;;;14.70;11.50;;;;;;;;;;4991273;28;20549;-81
2022/04/02 05:20:48;;;;;;;15.80;11.83;;;;;;;;;;5004772;28;20634;-81
2022/04/02 05:23:53;;;;;;;18.20;11.90;;;;;;;;;;5005836;28;20651;-81
2022/04/02 05:26:58;;;;;;;17.30;12.23;;;;;;;;;;5005140;28;20603;-81
2022/04/02 05:30:04;;;;;;;16.77;11.17;;;;;;;;;;4994198;28;20635;-81
2022/04/02 05:33:08;;;;;;;14.40;10.43;;;;;;;;;;5017240;28;20603;-81
2022/04/02 05:36:12;;;;;;;18.77;11.23;;;;;;;;;;5005026;28;20560;-81
2022/04/02 05:39:16;;;;;;;17.73;10.80;;;;;;;;;;4993957;28;20624;-81
2022/04/02 05:42:21;;;;;;;20.67;10.80;;;;;;;;;;5004868;28;20611;-81
2022/04/02 05:45:25;;;;;;;24.17;11.60;;;;;;;;;;5005157;28;20552;-81
2022/04/02 05:48:30;;;;;;;18.60;11.60;;;;;;;;;;4993789;28;20551;-81
2022/04/02 05:51:34;;;;;;;20.47;10.97;;;;;;;;;;5016458;28;21112;-81
2022/04/02 05:54:38;;;;;;;16.43;10.90;;;;;;;;;;5005137;28;20548;-81
2022/04/02 05:57:44;;;;;;;16.93;11.20;;;;;;;;;;5004655;28;20561;-81
2022/04/02 06:00:49;;;;;;;15.70;11.50;;;;;;;;;;5004628;28;20626;-81
2022/04/02 06:03:54;;;;;;;22.53;10.27;;;;;;;;;;4993671;28;20529;-81
2022/04/02 06:06:58;;;;;;;19.37;11.13;;;;;;;;;;4993224;28;20902;-81
2022/04/02 06:10:04;;;;;;;14.83;10.60;;;;;;;;;;5004915;28;20624;-81
2022/04/02 06:13:07;;;;;;;17.37;11.27;;;;;;;;;;4993623;28;20546;-81
2022/04/02 06:16:12;;;;;;;14.13;10.87;;;;;;;;;;4993651;28;20557;-81
2022/04/02 06:19:17;;;;;;;14.00;10.57;;;;;;;;;;5015693;28;20627;-81
2022/04/02 06:22:21;;;;;;;15.47;10.07;;;;;;;;;;5015169;28;21151;-81
2022/04/02 06:25:25;;;;;;;26.10;14.00;;;;;;;;;;4993775;28;20541;-81
2022/04/02 06:28:29;;;;;;;24.03;14.47;;;;;;;;;;5004270;28;20541;-81
2022/04/02 06:31:34;;;;;;;15.00;11.20;;;;;;;;;;4992881;28;20876;-81
2022/04/02 06:34:39;;;;;;;16.03;11.00;;;;;;;;;;4993191;28;20533;-82
2022/04/02 06:37:43;;;;;;;17.00;10.77;;;;;;;;;;4994911;28;20537;-82
2022/04/02 06:40:48;;;;;;;18.33;11.30;;;;;;;;;;5014265;28;20627;-83
2022/04/02 06:43:52;;;;;;;17.10;10.97;;;;;;;;;;5016881;28;20538;-83
2022/04/02 06:46:59;;;;;;;23.13;11.00;;;;;;;;;;5003669;28;20601;-81
2022/04/02 06:50:06;;;;;;;20.20;10.40;;;;;;;;;;5017084;22;20683;-81
2022/04/02 06:53:10;;;;;;;17.10;11.10;;;;;;;;;;5015406;28;20533;-81
2022/04/02 06:56:14;;;;;;;16.07;10.57;;;;;;;;;;5015375;28;20556;-81
2022/04/02 06:59:18;;;;;;;16.47;11.27;;;;;;;;;;5004234;28;20549;-81
2022/04/02 07:02:22;;;;;;;18.33;10.53;;;;;;;;;;5004054;28;20592;-81
2022/04/02 07:05:26;;;;;;;14.07;10.60;;;;;;;;;;5004232;28;20592;-81
2022/04/02 07:08:31;;;;;;;13.67;9.90;;;;;;;;;;5003841;28;20608;-81
2022/04/02 07:11:35;;;;;;;13.53;10.40;;;;;;;;;;4993090;28;20968;-81
2022/04/02 07:14:39;;;;;;;19.83;11.23;;;;;;;;;;5004099;28;20548;-81
2022/04/02 07:17:43;;;;;;;17.87;10.67;;;;;;;;;;5004060;28;20544;-81
2022/04/02 07:20:53;;;;;;;16.10;10.63;;;;;;;;;;4992262;28;21197;-81
2022/04/02 07:23:58;;;;;;;17.67;10.43;;;;;;;;;;5015291;28;20537;-81
2022/04/02 07:27:02;;;;;;;15.50;11.23;;;;;;;;;;4992230;28;20553;-81
2022/04/02 07:30:07;;;;;;;18.27;11.17;;;;;;;;;;4992213;28;20632;-82
2022/04/02 07:33:12;;;;;;;20.73;10.87;;;;;;;;;;4992360;28;20873;-81
2022/04/02 07:36:31;;;;;;;19.40;11.20;;;;;;;;;;4992241;28;20553;-81
2022/04/02 07:39:48;;;;;;;13.67;10.00;;;;;;;;;;4992071;28;20624;-81
2022/04/02 07:43:12;;;;;;;15.33;9.33;;;;;;;;;;5002007;28;21218;-81
2022/04/02 07:46:18;;;;;;;13.80;9.40;;;;;;;;;;5003408;28;20538;-82
2022/04/02 07:49:26;;;;;;;16.83;9.23;;;;;;;;;;5003229;28;20885;-82
2022/04/02 07:52:31;;;;;;;22.00;11.63;;;;;;;;;;4992077;28;20537;-82
2022/04/02 07:55:39;;;;;;;13.50;9.47;;;;;;;;;;5003216;28;20592;-82
2022/04/02 07:58:51;;;;;;;21.63;10.47;;;;;;;;;;5015333;28;20596;-82
2022/04/02 08:01:57;;;;;;;18.60;9.83;;;;;;;;;;5002960;28;20885;-82
2022/04/02 08:05:02;;;;;;;11.53;8.27;;;;;;;;;;5002672;28;20561;-82
2022/04/02 08:08:07;;;;;;;14.47;9.07;;;;;;;;;;5003852;28;20545;-82
2022/04/02 08:12:12;;;;;;;16.20;10.47;;;;;;;;;;4993660;28;20616;-82
2022/04/02 08:15:20;;;;;;;14.80;10.87;;;;;;;;;;5015234;28;20529;-82
2022/04/02 08:18:28;;;;;;;16.50;9.20;;;;;;;;;;5003737;28;20541;-82
2022/04/02 08:21:32;;;;;;;14.33;9.43;;;;;;;;;;5003918;28;21190;-82
2022/04/02 08:24:36;;;;;;;14.83;10.50;;;;;;;;;;4993146;28;20533;-82
2022/04/02 08:28:02;;;;;;;15.27;9.33;;;;;;;;;;5015311;28;21075;-82
2022/04/02 08:31:25;;;;;;;16.30;9.80;;;;;;;;;;5015138;28;20621;-82
2022/04/02 08:34:44;;;;;;;15.67;9.60;;;;;;;;;;5004417;28;20881;-81
2022/04/02 08:37:58;;;;;;;14.90;9.23;;;;;;;;;;5015573;28;20541;-82
2022/04/02 08:41:17;;;;;;;14.73;9.53;;;;;;;;;;5016236;28;20620;-82
2022/04/02 08:44:52;;;;;;;12.20;9.10;;;;;;;;;;5003308;28;20546;-82
2022/04/02 08:48:21;;;;;;;12.20;9.03;;;;;;;;;;5002525;28;20541;-82
2022/04/02 08:51:45;;;;;;;14.97;8.90;;;;;;;;;;5013715;28;21201;-82
2022/04/02 08:55:03;;;;;;;15.87;8.93;;;;;;;;;;5018697;28;20545;-81
2022/04/02 08:58:41;;;;;;;15.83;10.37;;;;;;;;;;5019927;28;20557;-81
2022/04/02 09:02:25;;;;;;;14.83;9.93;;;;;;;;;;5007776;28;20545;-82
2022/04/02 09:06:00;;;;;;;15.23;11.40;;;;;;;;;;4996985;28;20541;-82
2022/04/02 09:09:13;;;;;;;14.57;9.60;;;;;;;;;;5008029;28;20541;-82
2022/04/02 09:12:17;;;;;;;17.30;10.60;;;;;;;;;;5007641;28;20545;-82
2022/04/02 09:15:33;;;;;;;20.63;13.33;;;;;;;;;;5019854;28;21078;-82
2022/04/02 09:18:45;;;;;;;40.10;19.90;;;;;;;;;;5018975;28;20592;-82
2022/04/02 09:22:18;;;;;;;14.77;10.07;;;;;;;;;;5019058;28;21063;-82
2022/04/02 09:25:53;;;;;;;14.03;8.83;;;;;;;;;;5018463;28;20544;-82
2022/04/02 09:29:24;;;;;;;12.03;8.70;;;;;;;;;;5007130;28;20561;-82
2022/04/02 09:33:01;;;;;;;16.83;9.67;;;;;;;;;;5007602;28;20536;-82
2022/04/02 09:36:11;;;;;;;12.00;9.70;;;;;;;;;;4996209;28;20553;-82
2022/04/02 09:39:23;;;;;;;16.30;8.87;;;;;;;;;;5006866;28;20592;-82
2022/04/02 09:42:46;;;;;;;14.07;8.63;;;;;;;;;;4994751;28;21209;-82
2022/04/02 09:46:35;;;;;;;15.07;9.30;;;;;;;;;;5005738;28;20537;-82
2022/04/02 09:49:59;;;;;;;11.70;8.63;;;;;;;;;;5017412;28;20640;-83
2022/04/02 09:53:29;;;;;;;11.27;8.33;;;;;;;;;;4995015;28;20537;-83
2022/04/02 09:56:35;;;;;;;12.20;8.87;;;;;;;;;;4994287;28;20545;-83
2022/04/02 09:59:52;;;;;;;14.47;9.13;;;;;;;;;;5005965;28;20619;-84
2022/04/02 10:03:08;;;;;;;12.57;9.33;;;;;;;;;;5006635;28;20592;-84
2022/04/02 10:06:25;;;;;;;17.83;7.97;;;;;;;;;;4994626;28;20600;-84
2022/04/02 10:09:36;;;;;;;13.77;8.37;;;;;;;;;;4995214;28;20537;-84
2022/04/02 10:12:45;;;;;;;10.17;7.90;;;;;;;;;;5005558;28;20549;-84
2022/04/02 10:15:51;;;;;;;9.73;7.57;;;;;;;;;;5005487;28;20544;-84
2022/04/02 10:19:00;;;;;;;11.37;6.87;;;;;;;;;;5016636;28;20544;-84
2022/04/02 10:22:10;;;;;;;12.07;8.00;;;;;;;;;;4994806;28;21048;-83
2022/04/02 10:25:15;;;;;;;12.03;9.17;;;;;;;;;;4994267;28;20530;-83
2022/04/02 10:28:26;;;;;;;10.13;8.30;;;;;;;;;;4995149;28;20549;-83
2022/04/02 10:31:34;;;;;;;12.17;9.50;;;;;;;;;;5005763;28;20619;-83
2022/04/02 10:34:48;;;;;;;14.43;8.93;;;;;;;;;;4994577;28;20604;-83
2022/04/02 10:38:09;;;;;;;14.07;10.40;;;;;;;;;;4993798;28;20553;-83
2022/04/02 10:41:18;;;;;;;12.27;8.83;;;;;;;;;;5005132;28;20620;-83
2022/04/02 10:44:31;;;;;;;13.47;9.50;;;;;;;;;;5005431;28;20605;-84
2022/04/02 10:47:43;;;;;;;15.63;10.23;;;;;;;;;;4993990;28;21166;-84
2022/04/02 10:50:47;;;;;;;14.23;10.37;;;;;;;;;;4993628;28;20631;-84
2022/04/02 10:54:01;;;;;;;14.60;9.57;;;;;;;;;;4994859;28;20537;-84
2022/04/02 10:57:05;;;;;;;13.77;10.03;;;;;;;;;;4994157;28;20592;-85
2022/04/02 11:00:10;;;;;;;12.57;9.50;;;;;;;;;;4992609;28;20628;-85
2022/04/02 11:03:39;;;;;;;14.43;10.30;;;;;;;;;;5003646;28;20600;-84
2022/04/02 11:06:49;;;;;;;14.03;9.90;;;;;;;;;;5014545;28;20545;-84
2022/04/02 11:09:53;;;;;;;12.00;8.77;;;;;;;;;;4992708;28;20628;-84
2022/04/02 11:13:02;;;;;;;11.83;9.50;;;;;;;;;;4992450;28;21087;-84
2022/04/02 11:16:13;;;;;;;18.47;10.13;;;;;;;;;;4991647;28;20541;-83
2022/04/02 11:22:59;;;;;;;15.73;10.00;;;;;;;;;;5015170;28;20545;-82
2022/04/02 11:26:04;;;;;;;10.33;7.83;;;;;;;;;;4992390;28;20601;-84
2022/04/02 11:29:12;;;;;;;9.50;7.73;;;;;;;;;;4992018;28;20548;-85
2022/04/02 11:32:27;;;;;;;13.27;8.67;;;;;;;;;;5003063;28;20545;-85
2022/04/02 11:35:36;;;;;;;12.97;7.33;;;;;;;;;;4992166;28;20597;-84
2022/04/02 11:38:56;;;;;;;10.00;7.50;;;;;;;;;;4993041;28;21162;-84
2022/04/02 11:42:01;;;;;;;11.57;7.53;;;;;;;;;;4992985;28;21075;-84
2022/04/02 11:45:10;;;;;;;8.40;7.27;;;;;;;;;;4992134;28;21218;-84
2022/04/02 11:48:16;;;;;;;7.47;6.63;;;;;;;;;;4992571;28;20605;-84
2022/04/02 11:51:22;;;;;;;11.37;7.07;;;;;;;;;;5003292;28;20647;-86
2022/04/02 11:54:26;;;;;;;10.30;7.30;;;;;;;;;;4991453;28;21067;-86
2022/04/02 11:57:30;;;;;;;9.80;6.87;;;;;;;;;;4991098;28;20608;-86
2022/04/02 12:00:37;;;;;;;10.27;7.60;;;;;;;;;;5001976;28;20623;-86
2022/04/02 12:03:41;;;;;;;6.87;6.17;;;;;;;;;;5002163;28;20593;-86
2022/04/02 12:06:49;;;;;;;12.23;6.40;;;;;;;;;;5002400;28;20533;-87
2022/04/02 12:09:53;;;;;;;7.97;6.20;;;;;;;;;;5001915;28;20627;-88
2022/04/02 12:12:59;;;;;;;7.50;6.67;;;;;;;;;;4990504;28;21170;-87
2022/04/02 12:16:15;;;;;;;6.90;6.07;;;;;;;;;;4991179;28;21052;-87
2022/04/02 12:19:21;;;;;;;9.17;7.10;;;;;;;;;;5002293;28;20545;-86
2022/04/02 12:22:27;;;;;;;10.53;7.07;;;;;;;;;;5012964;28;20596;-86
2022/04/02 12:25:32;;;;;;;9.87;6.83;;;;;;;;;;4991307;28;20533;-84
2022/04/02 12:28:48;;;;;;;9.37;6.70;;;;;;;;;;5002615;28;20557;-85
2022/04/02 12:31:52;;;;;;;8.03;6.90;;;;;;;;;;5002758;28;20545;-84
2022/04/02 12:35:03;;;;;;;11.13;7.53;;;;;;;;;;4991129;28;20528;-86
2022/04/02 12:38:22;;;;;;;8.40;6.63;;;;;;;;;;4991155;28;20545;-82
2022/04/02 12:41:28;;;;;;;8.10;6.10;;;;;;;;;;5002426;28;20728;-83
2022/04/02 12:44:32;;;;;;;8.30;6.57;;;;;;;;;;4991363;28;20588;-83
2022/04/02 12:47:37;;;;;;;10.33;7.20;;;;;;;;;;4995437;28;20553;-83
2022/04/02 12:50:58;;;;;;;8.13;7.20;;;;;;;;;;5038677;22;21229;-84
2022/04/02 12:54:03;;;;;;;8.43;7.37;;;;;;;;;;5024687;28;20537;-85
2022/04/02 12:57:15;;;;;;;8.83;7.37;;;;;;;;;;5002821;28;20600;-84
2022/04/02 13:00:35;;;;;;;10.23;7.40;;;;;;;;;;5002841;28;20623;-83
2022/04/02 13:04:04;;;;;;;7.33;6.33;;;;;;;;;;5002633;28;20597;-84
2022/04/02 13:07:19;;;;;;;8.73;6.83;;;;;;;;;;4991153;28;20552;-83
2022/04/02 13:10:27;;;;;;;8.47;6.10;;;;;;;;;;5002367;28;20644;-84
2022/04/02 13:13:40;;;;;;;8.37;5.67;;;;;;;;;;5002038;28;20549;-82
2022/04/02 13:16:46;;;;;;;9.57;7.93;;;;;;;;;;5002628;28;21071;-84
2022/04/02 13:23:52;;;;;;;6.03;5.37;;;;;;;;;;5002170;28;20541;-83
2022/04/02 13:27:27;;;;;;;9.97;7.00;;;;;;;;;;5002295;28;20896;-83
2022/04/02 13:30:37;;;;;;;10.57;8.10;;;;;;;;;;4990182;28;20645;-84
2022/04/02 13:34:01;;;;;;;7.97;6.50;;;;;;;;;;4985841;28;20949;-84
2022/04/02 13:37:29;;;;;;;6.17;4.90;;;;;;;;;;5005829;28;20592;-84
2022/04/02 13:40:36;;;;;;;6.67;5.83;;;;;;;;;;4989418;28;20652;-83
2022/04/02 13:43:53;;;;;;;6.73;5.70;;;;;;;;;;4995689;28;20597;-83
2022/04/02 13:46:57;;;;;;;8.07;5.67;;;;;;;;;;4977188;28;20558;-84
2022/04/02 13:50:05;;;;;;;6.77;6.00;;;;;;;;;;4978700;28;20633;-83
2022/04/02 13:53:10;;;;;;;8.00;6.40;;;;;;;;;;4978461;28;20554;-84
2022/04/02 13:56:18;;;;;;;7.70;6.50;;;;;;;;;;4976555;28;20534;-83
2022/04/02 13:59:31;;;;;;;9.20;5.80;;;;;;;;;;4986796;28;20925;-83
2022/04/02 14:02:36;;;;;;;7.17;5.90;;;;;;;;;;4998537;28;20597;-84
2022/04/02 14:05:47;;;;;;;8.63;6.10;;;;;;;;;;4977828;28;20605;-84
2022/04/02 14:08:57;;;;;;;7.00;6.30;;;;;;;;;;5000605;28;20542;-83
2022/04/02 14:12:10;;;;;;;10.50;6.53;;;;;;;;;;4986668;28;20558;-82
2022/04/02 14:15:14;;;;;;;8.83;6.73;;;;;;;;;;4998612;28;20534;-83
2022/04/02 14:18:21;;;;;;;8.20;6.83;;;;;;;;;;4989500;28;20546;-82
2022/04/02 14:21:29;;;;;;;10.10;6.37;;;;;;;;;;4999745;28;20629;-83
2022/04/02 14:24:59;;;;;;;7.47;6.10;;;;;;;;;;5000169;28;20651;-83
2022/04/02 14:28:22;;;;;;;7.03;5.90;;;;;;;;;;4978055;28;20557;-82
2022/04/02 14:31:54;;;;;;;9.67;6.83;;;;;;;;;;4986891;28;20620;-81
2022/04/02 14:35:23;;;;;;;8.33;5.77;;;;;;;;;;4976780;28;20534;-84
2022/04/02 14:38:49;;;;;;;6.70;5.47;;;;;;;;;;4974766;28;20612;-85
2022/04/02 14:42:23;;;;;;;8.37;6.63;;;;;;;;;;4986940;28;20621;-83
2022/04/02 14:45:49;;;;;;;10.00;6.43;;;;;;;;;;4980844;28;20602;-84
2022/04/02 14:48:57;;;;;;;10.77;7.93;;;;;;;;;;4976923;28;20534;-83
2022/04/02 14:52:15;;;;;;;11.07;7.23;;;;;;;;;;4986467;28;21178;-83
2022/04/02 14:55:34;;;;;;;14.50;9.13;;;;;;;;;;4985144;28;20538;-83
2022/04/02 14:59:15;;;;;;;10.20;7.47;;;;;;;;;;4984800;28;20554;-82
2022/04/02 15:02:58;;;;;;;8.37;7.47;;;;;;;;;;4974463;28;20538;-83
2022/04/02 15:06:09;;;;;;;7.80;6.80;;;;;;;;;;4984642;28;20968;-83
2022/04/02 15:09:44;;;;;;;9.33;7.30;;;;;;;;;;4974479;28;20561;-83
2022/04/02 15:12:55;;;;;;;9.13;6.80;;;;;;;;;;4985297;28;20554;-83
2022/04/02 15:16:04;;;;;;;8.97;7.97;;;;;;;;;;4998172;28;20605;-83
2022/04/02 15:19:30;;;;;;;9.00;7.00;;;;;;;;;;4974293;28;20546;-82
2022/04/02 15:22:36;;;;;;;8.23;6.27;;;;;;;;;;4995881;28;20554;-83
2022/04/02 15:25:50;;;;;;;7.63;6.03;;;;;;;;;;4985033;28;20601;-82
2022/04/02 15:29:03;;;;;;;8.10;7.20;;;;;;;;;;4997428;28;20558;-83
2022/04/02 15:32:18;;;;;;;9.43;6.70;;;;;;;;;;4973633;28;20542;-82
2022/04/02 15:35:23;;;;;;;8.43;6.90;;;;;;;;;;4973283;28;20546;-82
2022/04/02 15:38:27;;;;;;;8.57;7.57;;;;;;;;;;4984512;28;21100;-82
2022/04/02 15:41:48;;;;;;;11.80;7.70;;;;;;;;;;4995578;28;20620;-82
2022/04/02 15:44:58;;;;;;;9.93;7.50;;;;;;;;;;4995263;28;21119;-83
2022/04/02 15:48:03;;;;;;;8.23;6.80;;;;;;;;;;4984232;28;20542;-82
2022/04/02 15:51:08;;;;;;;9.00;7.93;;;;;;;;;;4972719;28;20640;-81
2022/04/02 15:54:32;;;;;;;9.20;7.17;;;;;;;;;;4973056;28;21072;-82
2022/04/02 15:57:37;;;;;;;8.17;7.23;;;;;;;;;;4972925;28;20554;-81
2022/04/02 16:00:47;;;;;;;10.97;7.70;;;;;;;;;;4972512;28;20625;-82
2022/04/02 16:03:51;;;;;;;12.87;9.27;;;;;;;;;;4972403;28;21073;-81
2022/04/02 16:07:25;;;;;;;9.33;7.97;;;;;;;;;;4983334;28;21104;-82
2022/04/02 16:10:29;;;;;;;9.70;7.47;;;;;;;;;;4983318;28;21159;-81
2022/04/02 16:13:33;;;;;;;11.73;8.97;;;;;;;;;;4983214;28;20553;-82
2022/04/02 16:16:49;;;;;;;13.07;10.60;;;;;;;;;;4973127;28;20542;-82
2022/04/02 16:19:54;;;;;;;11.90;8.57;;;;;;;;;;4983403;28;20605;-83
2022/04/02 16:22:58;;;;;;;12.10;8.53;;;;;;;;;;4974142;28;20546;-82
2022/04/02 16:26:04;;;;;;;10.80;8.23;;;;;;;;;;4984474;28;21139;-82
2022/04/02 16:29:09;;;;;;;10.97;7.70;;;;;;;;;;4984864;28;20553;-82
2022/04/02 16:32:13;;;;;;;12.27;8.57;;;;;;;;;;4973821;28;20549;-82
2022/04/02 16:35:17;;;;;;;15.87;11.77;;;;;;;;;;4972109;28;20534;-82
2022/04/02 16:38:21;;;;;;;12.93;8.73;;;;;;;;;;4972262;28;20541;-82
2022/04/02 16:41:30;;;;;;;9.90;7.53;;;;;;;;;;4971927;28;20617;-82
2022/04/02 16:44:36;;;;;;;10.37;8.73;;;;;;;;;;4983119;28;20641;-82
2022/04/02 16:47:40;;;;;;;10.80;8.47;;;;;;;;;;4983802;28;20608;-82
2022/04/02 16:50:45;;;;;;;11.70;9.23;;;;;;;;;;4982678;28;21217;-82
2022/04/02 16:53:52;;;;;;;9.67;8.43;;;;;;;;;;4971980;28;20553;-82
2022/04/02 16:56:56;;;;;;;8.63;7.73;;;;;;;;;;4982986;28;20593;-82
2022/04/02 17:00:00;;;;;;;12.00;8.83;;;;;;;;;;4994186;28;20625;-82
2022/04/02 17:03:05;;;;;;;11.03;9.07;;;;;;;;;;4983751;28;20541;-82
2022/04/02 17:06:09;;;;;;;11.80;9.53;;;;;;;;;;4972698;28;21167;-82
2022/04/02 17:09:27;;;;;;;13.97;10.30;;;;;;;;;;4974556;28;20546;-83
2022/04/02 17:12:31;;;;;;;12.40;9.93;;;;;;;;;;4974428;28;20542;-82
2022/04/02 17:15:36;;;;;;;14.30;10.53;;;;;;;;;;4987815;28;20534;-83
2022/04/02 17:18:41;;;;;;;15.57;10.10;;;;;;;;;;4978219;28;20549;-84
2022/04/02 17:21:49;;;;;;;14.00;11.20;;;;;;;;;;4988674;28;20620;-83
2022/04/02 17:25:03;;;;;;;14.17;9.77;;;;;;;;;;4975908;28;20593;-82
2022/04/02 17:28:10;;;;;;;10.07;8.77;;;;;;;;;;4987831;28;20558;-83
2022/04/02 17:31:27;;;;;;;8.87;7.27;;;;;;;;;;4977010;28;20617;-83
2022/04/02 17:34:49;;;;;;;10.87;7.27;;;;;;;;;;4987646;28;20585;-83
2022/04/02 17:37:57;;;;;;;9.50;8.23;;;;;;;;;;4988434;28;20562;-83
2022/04/02 17:41:17;;;;;;;8.57;7.63;;;;;;;;;;4977568;28;20633;-82
2022/04/02 17:44:25;;;;;;;11.43;7.63;;;;;;;;;;4987988;28;20557;-83
2022/04/02 17:47:29;;;;;;;10.80;8.90;;;;;;;;;;4998759;28;20535;-83
2022/04/02 17:50:35;;;;;;;10.53;8.40;;;;;;;;;;4975630;28;20632;-83
2022/04/02 17:53:41;;;;;;;9.93;8.43;;;;;;;;;;4986570;28;20597;-83
2022/04/02 17:56:45;;;;;;;20.53;12.53;;;;;;;;;;4989730;28;20540;-83
2022/04/02 17:59:50;;;;;;;13.20;9.63;;;;;;;;;;4978713;28;20546;-83
2022/04/02 18:02:55;;;;;;;13.57;9.57;;;;;;;;;;4998774;28;20534;-82
2022/04/02 18:06:00;;;;;;;12.60;10.07;;;;;;;;;;4990274;28;20601;-83
2022/04/02 18:09:04;;;;;;;20.70;13.10;;;;;;;;;;4987035;28;20538;-82
2022/04/02 18:12:08;;;;;;;22.60;14.33;;;;;;;;;;4999508;28;20546;-83
2022/04/02 18:15:12;;;;;;;13.47;10.40;;;;;;;;;;4988132;28;20561;-85
2022/04/02 18:18:16;;;;;;;14.23;9.90;;;;;;;;;;4980254;28;20882;-83
2022/04/02 18:21:25;;;;;;;9.93;8.90;;;;;;;;;;4988202;28;20620;-83
2022/04/02 18:24:31;;;;;;;10.30;9.07;;;;;;;;;;4977531;28;20542;-82
2022/04/02 18:27:35;;;;;;;11.63;9.30;;;;;;;;;;4974346;28;20546;-83
2022/04/02 18:30:40;;;;;;;12.53;9.23;;;;;;;;;;4986158;28;21206;-83
2022/04/02 18:33:44;;;;;;;14.00;10.17;;;;;;;;;;4974512;28;20597;-83
2022/04/02 18:36:48;;;;;;;14.67;10.27;;;;;;;;;;4985696;28;21147;-83
2022/04/02 18:39:52;;;;;;;11.73;9.33;;;;;;;;;;4974744;28;20542;-83
2022/04/02 18:42:57;;;;;;;11.63;9.73;;;;;;;;;;4973913;28;20554;-83
2022/04/02 18:46:01;;;;;;;14.80;10.07;;;;;;;;;;4985388;28;21151;-82